sensor_id;sensor_type;location;lat;lon;timestamp;P1;durP1;ratioP1;P2;durP2;ratioP2
5403;SDS011;2725;51.054;6.948;2022-07-29T00:00:03;2.8;;;1.1;;
5403;SDS011;2725;51.054;6.948;2022-07-29T00:05:02;2.4;;;1.0;;
5403;SDS011;2725;51.054;6.948;2022-07-29T00:10:01;2.4;;;1.0;;
5403;SDS011;2725;51.054;6.948;2022-07-29T00:15:01;2.4;;;1.0;;
5403;SDS011;2725;51.054;6.948;2022-07-29T00:20:01;2.4;;;1.0;;
5403;SDS011;2725;51.054;6.948;2022-07-29T00:25:01;2.4;;;1.0;;
5403;SDS011;2725;51.054;6.948;2022-07-29T00:30:02;2.4;;;1.0;;
5403;SDS011;2725;51.054;6.948;2022-07-29T00:35:01;2.4;;;1.0;;
5403;SDS011;2725;51.054;6.948;2022-07-29T00:40:02;2.4;;;1.0;;
5403;SDS011;2725;51.054;6.948;2022-07-29T00:45:02;1.7;;;1.0;;
5403;SDS011;2725;51.054;6.948;2022-07-29T00:50:03;1.7;;;1.0;;
5403;SDS011;2725;51.054;6.948;2022-07-29T00:55:03;1.7;;;1.0;;
5403;SDS011;2725;51.054;6.948;2022-07-29T01:00:03;1.7;;;1.0;;
5403;SDS011;2725;51.054;6.948;2022-07-29T01:05:02;1.7;;;1.0;;
5403;SDS011;2725;51.054;6.948;2022-07-29T01:10:02;1.7;;;1.0;;
5403;SDS011;2725;51.054;6.948;2022-07-29T01:15:02;1.7;;;1.0;;
5403;SDS011;2725;51.054;6.948;2022-07-29T01:20:06;1.7;;;1.0;;
5403;SDS011;2725;51.054;6.948;2022-07-29T01:25:05;1.7;;;1.0;;
5403;SDS011;2725;51.054;6.948;2022-07-29T01:30:01;1.7;;;1.0;;
5403;SDS011;2725;51.054;6.948;2022-07-29T01:35:03;1.7;;;1.0;;
5403;SDS011;2725;51.054;6.948;2022-07-29T01:40:02;1.7;;;1.0;;
5403;SDS011;2725;51.054;6.948;2022-07-29T01:45:10;1.7;;;1.0;;
5403;SDS011;2725;51.054;6.948;2022-07-29T01:50:01;1.7;;;1.0;;
5403;SDS011;2725;51.054;6.948;2022-07-29T01:55:03;1.7;;;1.0;;
5403;SDS011;2725;51.054;6.948;2022-07-29T02:00:03;1.7;;;1.0;;
5403;SDS011;2725;51.054;6.948;2022-07-29T02:05:02;1.5;;;1.1;;
5403;SDS011;2725;51.054;6.948;2022-07-29T02:10:02;1.5;;;1.1;;
5403;SDS011;2725;51.054;6.948;2022-07-29T02:15:03;1.8;;;1.0;;
5403;SDS011;2725;51.054;6.948;2022-07-29T02:20:03;1.8;;;1.0;;
5403;SDS011;2725;51.054;6.948;2022-07-29T02:25:01;1.8;;;1.0;;
5403;SDS011;2725;51.054;6.948;2022-07-29T02:30:02;1.8;;;1.0;;
5403;SDS011;2725;51.054;6.948;2022-07-29T02:35:01;1.3;;;1.0;;
5403;SDS011;2725;51.054;6.948;2022-07-29T02:40:02;1.3;;;1.0;;
5403;SDS011;2725;51.054;6.948;2022-07-29T02:45:02;1.3;;;1.0;;
5403;SDS011;2725;51.054;6.948;2022-07-29T02:50:04;1.3;;;1.0;;
5403;SDS011;2725;51.054;6.948;2022-07-29T02:55:08;1.3;;;1.0;;
5403;SDS011;2725;51.054;6.948;2022-07-29T03:00:04;1.3;;;1.0;;
5403;SDS011;2725;51.054;6.948;2022-07-29T03:05:02;2.5;;;1.1;;
5403;SDS011;2725;51.054;6.948;2022-07-29T03:10:01;2.5;;;1.1;;
5403;SDS011;2725;51.054;6.948;2022-07-29T03:15:02;2.3;;;1.0;;
5403;SDS011;2725;51.054;6.948;2022-07-29T03:20:02;2.3;;;1.0;;
5403;SDS011;2725;51.054;6.948;2022-07-29T03:25:07;1.8;;;1.1;;
5403;SDS011;2725;51.054;6.948;2022-07-29T03:30:02;1.8;;;1.1;;
5403;SDS011;2725;51.054;6.948;2022-07-29T03:35:02;2.0;;;1.1;;
5403;SDS011;2725;51.054;6.948;2022-07-29T03:40:02;2.0;;;1.1;;
5403;SDS011;2725;51.054;6.948;2022-07-29T03:45:02;2.8;;;1.0;;
5403;SDS011;2725;51.054;6.948;2022-07-29T03:50:02;2.8;;;1.0;;
5403;SDS011;2725;51.054;6.948;2022-07-29T03:55:01;2.4;;;1.2;;
5403;SDS011;2725;51.054;6.948;2022-07-29T04:00:02;2.4;;;1.2;;
5403;SDS011;2725;51.054;6.948;2022-07-29T04:05:02;2.5;;;1.2;;
5403;SDS011;2725;51.054;6.948;2022-07-29T04:10:02;2.5;;;1.2;;
5403;SDS011;2725;51.054;6.948;2022-07-29T04:15:03;2.9;;;1.4;;
5403;SDS011;2725;51.054;6.948;2022-07-29T04:20:01;2.9;;;1.4;;
5403;SDS011;2725;51.054;6.948;2022-07-29T04:25:01;2.9;;;1.4;;
5403;SDS011;2725;51.054;6.948;2022-07-29T04:30:02;2.9;;;1.4;;
5403;SDS011;2725;51.054;6.948;2022-07-29T04:35:01;2.9;;;1.3;;
5403;SDS011;2725;51.054;6.948;2022-07-29T04:40:02;2.9;;;1.3;;
5403;SDS011;2725;51.054;6.948;2022-07-29T04:45:02;3.0;;;1.2;;
5403;SDS011;2725;51.054;6.948;2022-07-29T04:50:02;3.0;;;1.2;;
5403;SDS011;2725;51.054;6.948;2022-07-29T04:55:02;2.6;;;1.0;;
5403;SDS011;2725;51.054;6.948;2022-07-29T05:00:02;2.6;;;1.0;;
5403;SDS011;2725;51.054;6.948;2022-07-29T05:05:02;2.8;;;1.0;;
5403;SDS011;2725;51.054;6.948;2022-07-29T05:10:02;2.8;;;1.0;;
5403;SDS011;2725;51.054;6.948;2022-07-29T05:15:01;6.2;;;1.5;;
5403;SDS011;2725;51.054;6.948;2022-07-29T05:20:01;6.2;;;1.5;;
5403;SDS011;2725;51.054;6.948;2022-07-29T05:25:01;6.1;;;1.5;;
5403;SDS011;2725;51.054;6.948;2022-07-29T05:30:02;6.1;;;1.5;;
5403;SDS011;2725;51.054;6.948;2022-07-29T05:35:01;2.4;;;1.1;;
5403;SDS011;2725;51.054;6.948;2022-07-29T05:40:01;2.4;;;1.1;;
5403;SDS011;2725;51.054;6.948;2022-07-29T05:45:01;2.6;;;1.2;;
5403;SDS011;2725;51.054;6.948;2022-07-29T05:50:02;2.6;;;1.2;;
5403;SDS011;2725;51.054;6.948;2022-07-29T05:55:01;1.9;;;1.0;;
5403;SDS011;2725;51.054;6.948;2022-07-29T06:00:02;1.9;;;1.0;;
5403;SDS011;2725;51.054;6.948;2022-07-29T06:05:01;1.9;;;1.0;;
5403;SDS011;2725;51.054;6.948;2022-07-29T06:10:01;1.9;;;1.0;;
5403;SDS011;2725;51.054;6.948;2022-07-29T06:15:01;1.5;;;1.0;;
5403;SDS011;2725;51.054;6.948;2022-07-29T06:20:01;1.5;;;1.0;;
5403;SDS011;2725;51.054;6.948;2022-07-29T06:25:01;1.5;;;1.0;;
5403;SDS011;2725;51.054;6.948;2022-07-29T06:30:02;1.5;;;1.0;;
5403;SDS011;2725;51.054;6.948;2022-07-29T06:35:01;2.9;;;1.2;;
5403;SDS011;2725;51.054;6.948;2022-07-29T06:40:03;2.9;;;1.2;;
5403;SDS011;2725;51.054;6.948;2022-07-29T06:45:02;2.9;;;1.2;;
5403;SDS011;2725;51.054;6.948;2022-07-29T06:50:01;2.9;;;1.2;;
5403;SDS011;2725;51.054;6.948;2022-07-29T06:55:02;2.9;;;1.2;;
5403;SDS011;2725;51.054;6.948;2022-07-29T07:00:02;2.9;;;1.2;;
5403;SDS011;2725;51.054;6.948;2022-07-29T07:05:02;2.9;;;1.2;;
5403;SDS011;2725;51.054;6.948;2022-07-29T07:10:02;2.9;;;1.2;;
5403;SDS011;2725;51.054;6.948;2022-07-29T07:15:01;2.7;;;1.0;;
5403;SDS011;2725;51.054;6.948;2022-07-29T07:20:01;2.7;;;1.0;;
5403;SDS011;2725;51.054;6.948;2022-07-29T07:25:01;2.8;;;1.0;;
5403;SDS011;2725;51.054;6.948;2022-07-29T07:30:04;2.8;;;1.0;;
5403;SDS011;2725;51.054;6.948;2022-07-29T07:35:01;2.8;;;1.0;;
5403;SDS011;2725;51.054;6.948;2022-07-29T07:40:02;2.8;;;1.0;;
5403;SDS011;2725;51.054;6.948;2022-07-29T07:45:01;1.9;;;1.1;;
5403;SDS011;2725;51.054;6.948;2022-07-29T07:50:01;1.9;;;1.1;;
5403;SDS011;2725;51.054;6.948;2022-07-29T07:55:01;2.8;;;1.1;;
5403;SDS011;2725;51.054;6.948;2022-07-29T08:00:01;2.8;;;1.1;;
5403;SDS011;2725;51.054;6.948;2022-07-29T08:05:02;2.8;;;1.1;;
5403;SDS011;2725;51.054;6.948;2022-07-29T08:10:01;2.8;;;1.1;;
5403;SDS011;2725;51.054;6.948;2022-07-29T08:15:01;3.1;;;1.4;;
5403;SDS011;2725;51.054;6.948;2022-07-29T08:20:01;3.1;;;1.4;;
5403;SDS011;2725;51.054;6.948;2022-07-29T08:25:01;5.4;;;1.5;;
5403;SDS011;2725;51.054;6.948;2022-07-29T08:30:02;5.4;;;1.5;;
5403;SDS011;2725;51.054;6.948;2022-07-29T08:35:01;6.5;;;1.6;;
5403;SDS011;2725;51.054;6.948;2022-07-29T08:40:01;6.5;;;1.6;;
5403;SDS011;2725;51.054;6.948;2022-07-29T08:45:02;3.1;;;1.4;;
5403;SDS011;2725;51.054;6.948;2022-07-29T08:50:01;3.1;;;1.4;;
5403;SDS011;2725;51.054;6.948;2022-07-29T08:55:01;3.0;;;1.4;;
5403;SDS011;2725;51.054;6.948;2022-07-29T09:00:04;3.0;;;1.4;;
5403;SDS011;2725;51.054;6.948;2022-07-29T09:05:01;2.3;;;1.4;;
5403;SDS011;2725;51.054;6.948;2022-07-29T09:10:02;2.3;;;1.4;;
5403;SDS011;2725;51.054;6.948;2022-07-29T09:15:01;2.2;;;1.1;;
5403;SDS011;2725;51.054;6.948;2022-07-29T09:20:08;2.2;;;1.1;;
5403;SDS011;2725;51.054;6.948;2022-07-29T09:25:01;2.3;;;1.1;;
5403;SDS011;2725;51.054;6.948;2022-07-29T09:30:05;2.3;;;1.1;;
5403;SDS011;2725;51.054;6.948;2022-07-29T09:35:33;3.0;;;1.2;;
5403;SDS011;2725;51.054;6.948;2022-07-29T09:40:01;3.0;;;1.2;;
5403;SDS011;2725;51.054;6.948;2022-07-29T09:45:01;2.3;;;1.4;;
5403;SDS011;2725;51.054;6.948;2022-07-29T09:50:01;2.3;;;1.4;;
5403;SDS011;2725;51.054;6.948;2022-07-29T09:55:05;2.4;;;1.4;;
5403;SDS011;2725;51.054;6.948;2022-07-29T10:00:04;2.4;;;1.4;;
5403;SDS011;2725;51.054;6.948;2022-07-29T10:05:04;2.3;;;1.4;;
5403;SDS011;2725;51.054;6.948;2022-07-29T10:10:01;2.3;;;1.4;;
5403;SDS011;2725;51.054;6.948;2022-07-29T10:15:01;4.4;;;1.9;;
5403;SDS011;2725;51.054;6.948;2022-07-29T10:20:01;4.4;;;1.9;;
5403;SDS011;2725;51.054;6.948;2022-07-29T10:25:01;2.7;;;1.6;;
5403;SDS011;2725;51.054;6.948;2022-07-29T10:30:03;2.7;;;1.6;;
5403;SDS011;2725;51.054;6.948;2022-07-29T10:35:06;2.7;;;1.6;;
5403;SDS011;2725;51.054;6.948;2022-07-29T10:40:11;2.7;;;1.6;;
5403;SDS011;2725;51.054;6.948;2022-07-29T10:45:02;4.7;;;1.9;;
5403;SDS011;2725;51.054;6.948;2022-07-29T10:50:03;4.7;;;1.9;;
5403;SDS011;2725;51.054;6.948;2022-07-29T10:55:01;3.1;;;1.6;;
5403;SDS011;2725;51.054;6.948;2022-07-29T11:05:03;3.0;;;1.7;;
5403;SDS011;2725;51.054;6.948;2022-07-29T11:10:19;3.0;;;1.7;;
5403;SDS011;2725;51.054;6.948;2022-07-29T11:15:01;4.7;;;1.8;;
5403;SDS011;2725;51.054;6.948;2022-07-29T11:21:06;4.7;;;1.8;;
5403;SDS011;2725;51.054;6.948;2022-07-29T11:25:17;4.7;;;1.8;;
5403;SDS011;2725;51.054;6.948;2022-07-29T11:30:01;4.7;;;1.8;;
5403;SDS011;2725;51.054;6.948;2022-07-29T11:35:34;3.2;;;1.7;;
5403;SDS011;2725;51.054;6.948;2022-07-29T11:40:11;3.2;;;1.7;;
5403;SDS011;2725;51.054;6.948;2022-07-29T11:45:03;2.9;;;1.5;;
5403;SDS011;2725;51.054;6.948;2022-07-29T11:50:02;2.9;;;1.5;;
5403;SDS011;2725;51.054;6.948;2022-07-29T11:55:01;3.2;;;1.6;;
5403;SDS011;2725;51.054;6.948;2022-07-29T12:00:04;3.2;;;1.6;;
5403;SDS011;2725;51.054;6.948;2022-07-29T12:05:01;2.6;;;1.7;;
5403;SDS011;2725;51.054;6.948;2022-07-29T12:10:02;2.6;;;1.7;;
5403;SDS011;2725;51.054;6.948;2022-07-29T12:15:12;2.5;;;1.7;;
5403;SDS011;2725;51.054;6.948;2022-07-29T12:20:03;2.5;;;1.7;;
5403;SDS011;2725;51.054;6.948;2022-07-29T12:25:03;3.1;;;1.6;;
5403;SDS011;2725;51.054;6.948;2022-07-29T12:30:04;3.1;;;1.6;;
5403;SDS011;2725;51.054;6.948;2022-07-29T12:35:03;3.1;;;1.5;;
5403;SDS011;2725;51.054;6.948;2022-07-29T12:40:02;3.1;;;1.5;;
5403;SDS011;2725;51.054;6.948;2022-07-29T12:45:01;3.1;;;1.5;;
5403;SDS011;2725;51.054;6.948;2022-07-29T12:50:10;3.1;;;1.5;;
5403;SDS011;2725;51.054;6.948;2022-07-29T12:55:01;3.7;;;1.7;;
5403;SDS011;2725;51.054;6.948;2022-07-29T13:00:04;3.7;;;1.7;;
5403;SDS011;2725;51.054;6.948;2022-07-29T13:05:01;2.5;;;1.5;;
5403;SDS011;2725;51.054;6.948;2022-07-29T13:10:10;2.5;;;1.5;;
5403;SDS011;2725;51.054;6.948;2022-07-29T13:15:11;3.2;;;1.7;;
5403;SDS011;2725;51.054;6.948;2022-07-29T13:20:05;3.2;;;1.7;;
5403;SDS011;2725;51.054;6.948;2022-07-29T13:25:01;2.9;;;1.7;;
5403;SDS011;2725;51.054;6.948;2022-07-29T13:30:02;2.9;;;1.7;;
5403;SDS011;2725;51.054;6.948;2022-07-29T13:35:03;4.3;;;2.1;;
5403;SDS011;2725;51.054;6.948;2022-07-29T13:40:02;4.3;;;2.1;;
5403;SDS011;2725;51.054;6.948;2022-07-29T13:45:01;4.4;;;2.1;;
5403;SDS011;2725;51.054;6.948;2022-07-29T13:50:02;4.4;;;2.1;;
5403;SDS011;2725;51.054;6.948;2022-07-29T13:55:02;4.5;;;1.8;;
5403;SDS011;2725;51.054;6.948;2022-07-29T14:00:01;4.5;;;1.8;;
5403;SDS011;2725;51.054;6.948;2022-07-29T14:05:02;4.6;;;1.9;;
5403;SDS011;2725;51.054;6.948;2022-07-29T14:10:02;4.6;;;1.9;;
5403;SDS011;2725;51.054;6.948;2022-07-29T14:15:02;5.5;;;2.5;;
5403;SDS011;2725;51.054;6.948;2022-07-29T14:20:01;5.5;;;2.5;;
5403;SDS011;2725;51.054;6.948;2022-07-29T14:25:02;5.9;;;2.1;;
5403;SDS011;2725;51.054;6.948;2022-07-29T14:30:01;5.9;;;2.1;;
5403;SDS011;2725;51.054;6.948;2022-07-29T14:35:02;5.9;;;2.2;;
5403;SDS011;2725;51.054;6.948;2022-07-29T14:40:02;5.9;;;2.2;;
5403;SDS011;2725;51.054;6.948;2022-07-29T14:45:01;5.6;;;2.0;;
5403;SDS011;2725;51.054;6.948;2022-07-29T14:50:02;5.6;;;2.0;;
5403;SDS011;2725;51.054;6.948;2022-07-29T14:55:02;4.1;;;2.2;;
5403;SDS011;2725;51.054;6.948;2022-07-29T15:00:03;4.1;;;2.2;;
5403;SDS011;2725;51.054;6.948;2022-07-29T15:05:01;4.0;;;2.2;;
5403;SDS011;2725;51.054;6.948;2022-07-29T15:10:01;4.0;;;2.2;;
5403;SDS011;2725;51.054;6.948;2022-07-29T15:15:01;5.3;;;2.1;;
5403;SDS011;2725;51.054;6.948;2022-07-29T15:20:02;5.3;;;2.1;;
5403;SDS011;2725;51.054;6.948;2022-07-29T15:25:01;6.2;;;2.3;;
5403;SDS011;2725;51.054;6.948;2022-07-29T15:30:02;6.2;;;2.3;;
5403;SDS011;2725;51.054;6.948;2022-07-29T15:35:01;4.6;;;1.9;;
5403;SDS011;2725;51.054;6.948;2022-07-29T15:40:01;4.6;;;1.9;;
5403;SDS011;2725;51.054;6.948;2022-07-29T15:45:01;3.7;;;2.1;;
5403;SDS011;2725;51.054;6.948;2022-07-29T15:50:01;3.7;;;2.1;;
5403;SDS011;2725;51.054;6.948;2022-07-29T15:55:01;5.1;;;1.9;;
5403;SDS011;2725;51.054;6.948;2022-07-29T16:00:03;5.1;;;1.9;;
5403;SDS011;2725;51.054;6.948;2022-07-29T16:05:01;4.6;;;2.7;;
5403;SDS011;2725;51.054;6.948;2022-07-29T16:10:01;4.6;;;2.7;;
5403;SDS011;2725;51.054;6.948;2022-07-29T16:15:01;4.5;;;2.6;;
5403;SDS011;2725;51.054;6.948;2022-07-29T16:20:01;4.5;;;2.6;;
5403;SDS011;2725;51.054;6.948;2022-07-29T16:25:01;5.6;;;2.5;;
5403;SDS011;2725;51.054;6.948;2022-07-29T16:30:01;5.6;;;2.5;;
5403;SDS011;2725;51.054;6.948;2022-07-29T16:35:02;4.1;;;2.4;;
5403;SDS011;2725;51.054;6.948;2022-07-29T16:40:02;4.1;;;2.4;;
5403;SDS011;2725;51.054;6.948;2022-07-29T16:45:02;4.8;;;2.6;;
5403;SDS011;2725;51.054;6.948;2022-07-29T16:50:02;4.8;;;2.6;;
5403;SDS011;2725;51.054;6.948;2022-07-29T16:55:02;4.5;;;2.4;;
5403;SDS011;2725;51.054;6.948;2022-07-29T17:00:02;4.5;;;2.4;;
5403;SDS011;2725;51.054;6.948;2022-07-29T17:05:02;5.3;;;2.3;;
5403;SDS011;2725;51.054;6.948;2022-07-29T17:10:01;5.3;;;2.3;;
5403;SDS011;2725;51.054;6.948;2022-07-29T17:15:02;3.2;;;1.9;;
5403;SDS011;2725;51.054;6.948;2022-07-29T17:20:01;3.2;;;1.9;;
5403;SDS011;2725;51.054;6.948;2022-07-29T17:25:02;5.5;;;2.6;;
5403;SDS011;2725;51.054;6.948;2022-07-29T17:30:01;5.5;;;2.6;;
5403;SDS011;2725;51.054;6.948;2022-07-29T17:35:01;5.7;;;2.6;;
5403;SDS011;2725;51.054;6.948;2022-07-29T17:40:01;5.7;;;2.6;;
5403;SDS011;2725;51.054;6.948;2022-07-29T17:45:01;4.0;;;2.2;;
5403;SDS011;2725;51.054;6.948;2022-07-29T17:50:01;4.0;;;2.2;;
5403;SDS011;2725;51.054;6.948;2022-07-29T17:55:01;3.9;;;2.1;;
5403;SDS011;2725;51.054;6.948;2022-07-29T18:00:01;3.9;;;2.1;;
5403;SDS011;2725;51.054;6.948;2022-07-29T18:05:02;3.1;;;2.1;;
5403;SDS011;2725;51.054;6.948;2022-07-29T18:10:01;3.1;;;2.1;;
5403;SDS011;2725;51.054;6.948;2022-07-29T18:15:02;4.0;;;2.1;;
5403;SDS011;2725;51.054;6.948;2022-07-29T18:20:02;4.0;;;2.1;;
5403;SDS011;2725;51.054;6.948;2022-07-29T18:25:01;3.8;;;2.0;;
5403;SDS011;2725;51.054;6.948;2022-07-29T18:30:02;3.8;;;2.0;;
5403;SDS011;2725;51.054;6.948;2022-07-29T18:35:01;3.0;;;1.9;;
5403;SDS011;2725;51.054;6.948;2022-07-29T18:40:02;3.0;;;1.9;;
5403;SDS011;2725;51.054;6.948;2022-07-29T18:45:02;3.0;;;1.8;;
5403;SDS011;2725;51.054;6.948;2022-07-29T18:50:05;3.0;;;1.8;;
5403;SDS011;2725;51.054;6.948;2022-07-29T18:55:02;3.1;;;1.9;;
5403;SDS011;2725;51.054;6.948;2022-07-29T19:00:01;3.1;;;1.9;;
5403;SDS011;2725;51.054;6.948;2022-07-29T19:05:04;2.9;;;1.6;;
5403;SDS011;2725;51.054;6.948;2022-07-29T19:10:01;2.9;;;1.6;;
5403;SDS011;2725;51.054;6.948;2022-07-29T19:15:02;2.2;;;1.6;;
5403;SDS011;2725;51.054;6.948;2022-07-29T19:20:01;2.2;;;1.6;;
5403;SDS011;2725;51.054;6.948;2022-07-29T19:25:01;2.1;;;1.6;;
5403;SDS011;2725;51.054;6.948;2022-07-29T19:30:01;2.1;;;1.6;;
5403;SDS011;2725;51.054;6.948;2022-07-29T19:35:02;3.0;;;1.8;;
5403;SDS011;2725;51.054;6.948;2022-07-29T19:40:02;3.0;;;1.8;;
5403;SDS011;2725;51.054;6.948;2022-07-29T19:45:02;2.7;;;1.8;;
5403;SDS011;2725;51.054;6.948;2022-07-29T19:50:02;2.7;;;1.8;;
5403;SDS011;2725;51.054;6.948;2022-07-29T19:55:02;2.7;;;1.8;;
5403;SDS011;2725;51.054;6.948;2022-07-29T20:00:02;2.7;;;1.8;;
5403;SDS011;2725;51.054;6.948;2022-07-29T20:05:02;2.5;;;1.9;;
5403;SDS011;2725;51.054;6.948;2022-07-29T20:10:02;2.5;;;1.9;;
5403;SDS011;2725;51.054;6.948;2022-07-29T20:15:01;2.5;;;2.0;;
5403;SDS011;2725;51.054;6.948;2022-07-29T20:20:02;2.5;;;2.0;;
5403;SDS011;2725;51.054;6.948;2022-07-29T20:25:02;3.1;;;2.0;;
5403;SDS011;2725;51.054;6.948;2022-07-29T20:30:01;3.1;;;2.0;;
5403;SDS011;2725;51.054;6.948;2022-07-29T20:35:01;3.1;;;2.0;;
5403;SDS011;2725;51.054;6.948;2022-07-29T20:40:01;3.1;;;2.0;;
5403;SDS011;2725;51.054;6.948;2022-07-29T20:45:01;3.7;;;2.7;;
5403;SDS011;2725;51.054;6.948;2022-07-29T20:50:01;3.7;;;2.7;;
5403;SDS011;2725;51.054;6.948;2022-07-29T20:55:01;3.9;;;2.6;;
5403;SDS011;2725;51.054;6.948;2022-07-29T21:00:03;3.9;;;2.6;;
5403;SDS011;2725;51.054;6.948;2022-07-29T21:05:01;3.5;;;2.7;;
5403;SDS011;2725;51.054;6.948;2022-07-29T21:10:02;3.5;;;2.7;;
5403;SDS011;2725;51.054;6.948;2022-07-29T21:15:02;3.4;;;2.4;;
5403;SDS011;2725;51.054;6.948;2022-07-29T21:20:03;3.4;;;2.4;;
5403;SDS011;2725;51.054;6.948;2022-07-29T21:25:02;3.6;;;2.4;;
5403;SDS011;2725;51.054;6.948;2022-07-29T21:30:01;3.6;;;2.4;;
5403;SDS011;2725;51.054;6.948;2022-07-29T21:35:02;4.9;;;2.7;;
5403;SDS011;2725;51.054;6.948;2022-07-29T21:40:01;4.9;;;2.7;;
5403;SDS011;2725;51.054;6.948;2022-07-29T21:45:01;3.0;;;2.4;;
5403;SDS011;2725;51.054;6.948;2022-07-29T21:50:01;3.0;;;2.4;;
5403;SDS011;2725;51.054;6.948;2022-07-29T21:55:01;3.7;;;2.6;;
5403;SDS011;2725;51.054;6.948;2022-07-29T22:00:02;3.7;;;2.6;;
5403;SDS011;2725;51.054;6.948;2022-07-29T22:05:01;4.5;;;2.7;;
5403;SDS011;2725;51.054;6.948;2022-07-29T22:10:01;4.5;;;2.7;;
5403;SDS011;2725;51.054;6.948;2022-07-29T22:15:02;4.5;;;2.3;;
5403;SDS011;2725;51.054;6.948;2022-07-29T22:20:01;4.5;;;2.3;;
5403;SDS011;2725;51.054;6.948;2022-07-29T22:25:02;3.9;;;2.2;;
5403;SDS011;2725;51.054;6.948;2022-07-29T22:30:03;3.9;;;2.2;;
5403;SDS011;2725;51.054;6.948;2022-07-29T22:35:01;3.2;;;2.2;;
5403;SDS011;2725;51.054;6.948;2022-07-29T22:40:02;3.2;;;2.2;;
5403;SDS011;2725;51.054;6.948;2022-07-29T22:45:02;3.0;;;2.2;;
5403;SDS011;2725;51.054;6.948;2022-07-29T22:50:02;3.0;;;2.2;;
5403;SDS011;2725;51.054;6.948;2022-07-29T22:55:02;2.8;;;2.2;;
5403;SDS011;2725;51.054;6.948;2022-07-29T23:00:02;2.8;;;2.2;;
5403;SDS011;2725;51.054;6.948;2022-07-29T23:05:02;2.8;;;2.2;;
5403;SDS011;2725;51.054;6.948;2022-07-29T23:10:01;2.8;;;2.2;;
5403;SDS011;2725;51.054;6.948;2022-07-29T23:15:02;3.1;;;2.5;;
5403;SDS011;2725;51.054;6.948;2022-07-29T23:20:03;3.1;;;2.5;;
5403;SDS011;2725;51.054;6.948;2022-07-29T23:25:01;3.1;;;2.6;;
5403;SDS011;2725;51.054;6.948;2022-07-29T23:30:02;3.1;;;2.6;;
5403;SDS011;2725;51.054;6.948;2022-07-29T23:35:02;2.5;;;2.3;;
5403;SDS011;2725;51.054;6.948;2022-07-29T23:40:02;2.5;;;2.3;;
5403;SDS011;2725;51.054;6.948;2022-07-29T23:45:02;2.6;;;2.3;;
5403;SDS011;2725;51.054;6.948;2022-07-29T23:50:01;2.6;;;2.3;;
5403;SDS011;2725;51.054;6.948;2022-07-29T23:55:01;3.1;;;2.4;;
